Senia, North Carolina
Current Conditions -  °F | °C
As of 6:55 PM on Friday 31 Oct 2014 (Local Time) from KTNB Reporting Station
Light Rain Light Rain  
Wind Chill: 35°   Ceiling: Unl
Heat Index: 40°   Visibility: 10mi
Dew Point: 37°   Wind: 7mph
Humidity: 88%   Direction: 290°WNW
Pressure: 29.81"   Gusts: NA
Location:  36.0227°N, 81.9499°W
Report Text: KTNB 312255Z AUTO 29006KT 10SM -RA SCT013 SCT018 SCT060 04/03 A2981 RMK AO2 T00440025
Loading
Personal Weather Stations






























Interactive Weather Map
Tropical Storm Tracking
New forecast layout! Learn more

10-Day Weather Forecast

Advertisements
Track Severe Weather on mobile